Time;durP1;ratioP1;P1;durP2;ratioP2;P2;SDS_P1;SDS_P2;PMS_P1;PMS_P2;Temp;Humidity;BMP_temperature;BMP_pressure;BME280_temperature;BME280_humidity;BME280_pressure;Samples;Min_cycle;Max_cycle;Signal;HPM_P1;HPM_P2
2020/12/22 00:03:17;;;;;;;22.75;15.15;;;;;;;5.09;81.86;100508.89;2824368;84;21152;-69
2020/12/22 00:07:20;;;;;;;25.37;13.83;;;;;;;5.04;82.13;100493.80;2832815;84;21752;-67
2020/12/22 00:11:26;;;;;;;22.15;14.47;;;;;;;5.02;82.14;100485.98;2824347;84;21122;-68
2020/12/22 00:15:36;;;;;;;31.97;20.60;;;;;;;4.98;82.40;100492.34;2824153;82;21180;-67
2020/12/22 00:19:41;;;;;;;24.85;17.90;;;;;;;5.03;82.45;100483.73;2822004;84;21132;-68
2020/12/22 00:23:44;;;;;;;27.07;16.55;;;;;;;4.95;82.66;100473.61;2822326;82;21135;-68
2020/12/22 00:27:50;;;;;;;32.95;21.17;;;;;;;4.95;82.71;100476.25;2830085;84;21585;-68
2020/12/22 00:32:00;;;;;;;29.65;19.52;;;;;;;4.95;82.69;100465.70;2820946;83;21180;-67
2020/12/22 00:35:58;;;;;;;26.48;17.37;;;;;;;4.96;82.82;100459.49;2823896;82;21161;-68
2020/12/22 00:40:01;;;;;;;24.43;17.12;;;;;;;5.04;82.83;100458.20;2822449;82;21180;-67
2020/12/22 00:44:04;;;;;;;29.37;20.75;;;;;;;5.09;82.71;100459.66;2832361;82;21148;-66
2020/12/22 00:48:07;;;;;;;26.12;18.23;;;;;;;5.13;82.60;100449.31;2842896;82;21122;-67
2020/12/22 00:52:12;;;;;;;28.00;19.77;;;;;;;5.19;82.49;100442.84;2845709;82;21207;-67
2020/12/22 00:56:15;;;;;;;23.42;15.35;;;;;;;5.23;82.23;100441.72;2850451;82;21160;-66
2020/12/22 01:00:20;;;;;;;23.12;16.00;;;;;;;5.23;82.36;100431.17;2838135;82;21153;-69
2020/12/22 01:04:23;;;;;;;27.58;18.67;;;;;;;5.26;82.49;100434.11;2819756;84;21599;-68
2020/12/22 01:08:30;;;;;;;29.27;20.52;;;;;;;5.29;82.65;100439.20;2821931;83;21165;-69
2020/12/22 01:12:35;;;;;;;22.02;15.95;;;;;;;5.35;82.72;100449.40;2821777;84;21122;-68
2020/12/22 01:16:40;;;;;;;30.55;17.77;;;;;;;5.41;82.69;100441.16;2826966;84;21166;-70
2020/12/22 01:20:44;;;;;;;23.67;18.00;;;;;;;5.55;82.53;100444.75;2823080;84;21180;-70
2020/12/22 01:24:47;;;;;;;25.68;16.60;;;;;;;5.63;82.50;100428.48;2822727;84;21170;-70
2020/12/22 01:28:54;;;;;;;21.07;13.35;;;;;;;5.67;82.32;100413.70;2821967;83;21180;-67
2020/12/22 01:32:57;;;;;;;21.73;15.30;;;;;;;5.76;82.35;100407.02;2823423;84;21833;-69
2020/12/22 01:37:00;;;;;;;18.15;11.85;;;;;;;5.88;82.41;100408.53;2822691;83;21186;-67
2020/12/22 01:41:05;;;;;;;32.73;17.75;;;;;;;5.95;82.06;100408.06;2816517;84;21140;-69
2020/12/22 01:45:09;;;;;;;22.67;13.55;;;;;;;6.04;81.98;100414.62;2821350;84;21175;-68
2020/12/22 01:49:28;;;;;;;19.92;14.03;;;;;;;6.08;81.75;100394.99;2821262;84;21172;-66
2020/12/22 01:53:32;;;;;;;12.43;10.35;;;;;;;6.12;81.67;100392.56;2822297;84;21179;-68
2020/12/22 01:57:35;;;;;;;15.50;10.78;;;;;;;6.11;81.58;100376.34;2821594;84;21183;-70
2020/12/22 02:01:38;;;;;;;13.20;9.75;;;;;;;6.19;81.52;100365.77;2830460;84;21171;-68
2020/12/22 02:05:42;;;;;;;19.70;11.38;;;;;;;6.30;81.18;100352.74;2824579;84;21167;-67
2020/12/22 02:09:49;;;;;;;14.13;10.93;;;;;;;6.41;80.85;100341.00;2831018;84;21160;-70
2020/12/22 02:13:51;;;;;;;18.77;11.12;;;;;;;6.47;80.50;100341.55;2829763;84;21628;-67
2020/12/22 02:17:58;;;;;;;19.12;10.95;;;;;;;6.51;80.21;100328.55;2830166;84;21201;-68
2020/12/22 02:22:04;;;;;;;14.45;9.00;;;;;;;6.56;79.99;100311.42;2858647;82;21163;-70
2020/12/22 02:26:09;;;;;;;13.78;9.35;;;;;;;6.60;79.95;100316.04;2865596;82;21151;-70
2020/12/22 02:30:12;;;;;;;16.77;9.85;;;;;;;6.62;79.73;100312.82;2854312;82;21779;-68
2020/12/22 02:34:16;;;;;;;15.90;10.32;;;;;;;6.69;79.62;100304.89;2858865;82;21191;-67
2020/12/22 02:38:20;;;;;;;11.05;8.70;;;;;;;6.71;79.31;100289.77;2840097;83;21149;-68
2020/12/22 02:42:24;;;;;;;12.45;9.30;;;;;;;6.73;79.30;100280.89;2820634;84;21219;-68
2020/12/22 02:46:27;;;;;;;16.77;10.70;;;;;;;6.74;79.18;100265.39;2823152;84;21198;-67
2020/12/22 02:50:31;;;;;;;12.73;8.70;;;;;;;6.78;79.17;100266.88;2821512;84;21149;-68
2020/12/22 02:54:35;;;;;;;11.20;9.70;;;;;;;6.78;78.98;100260.27;2822035;84;21607;-69
2020/12/22 02:58:39;;;;;;;14.70;9.58;;;;;;;6.79;78.72;100246.97;2822433;84;21157;-68
2020/12/22 03:02:42;;;;;;;12.93;8.13;;;;;;;6.80;78.83;100241.19;2821672;84;21238;-68
2020/12/22 03:06:47;;;;;;;12.68;9.68;;;;;;;6.82;78.85;100233.99;2818937;84;21159;-68
2020/12/22 03:10:50;;;;;;;11.88;9.15;;;;;;;6.82;78.76;100233.53;2822543;84;21192;-69
2020/12/22 03:14:53;;;;;;;18.37;12.20;;;;;;;6.85;78.67;100233.78;2821132;84;21630;-67
2020/12/22 03:18:56;;;;;;;16.25;8.68;;;;;;;6.91;78.64;100246.61;2823740;84;21151;-68
2020/12/22 03:22:59;;;;;;;13.98;7.40;;;;;;;6.94;78.52;100243.75;2823611;84;21140;-67
2020/12/22 03:27:06;;;;;;;11.95;7.35;;;;;;;6.98;78.34;100236.47;2824007;84;21594;-66
2020/12/22 03:31:09;;;;;;;13.20;8.70;;;;;;;6.98;78.28;100237.30;2823333;84;21167;-67
2020/12/22 03:35:16;;;;;;;9.15;6.33;;;;;;;7.02;78.29;100220.76;2814274;83;21211;-68
2020/12/22 03:39:20;;;;;;;13.32;8.83;;;;;;;7.06;78.31;100210.80;2800664;85;21200;-67
2020/12/22 03:43:24;;;;;;;9.85;6.92;;;;;;;7.08;78.19;100199.17;2800292;84;21176;-67
2020/12/22 03:47:28;;;;;;;9.33;7.87;;;;;;;7.06;78.25;100197.11;2808665;84;21172;-67
2020/12/22 03:51:31;;;;;;;15.35;7.53;;;;;;;7.08;78.40;100195.70;2816280;83;21148;-67
2020/12/22 03:55:38;;;;;;;8.23;7.10;;;;;;;7.07;78.15;100178.97;2824606;82;21167;-67
2020/12/22 03:59:42;;;;;;;10.25;8.00;;;;;;;7.09;77.98;100172.26;2803705;83;21164;-66
2020/12/22 04:03:45;;;;;;;10.05;6.53;;;;;;;7.11;78.09;100161.09;2806071;83;21263;-67
2020/12/22 04:07:49;;;;;;;12.10;8.63;;;;;;;7.06;78.05;100149.96;2813199;84;21717;-66
2020/12/22 04:11:53;;;;;;;12.23;8.40;;;;;;;7.08;78.36;100142.80;2815272;84;21148;-69
2020/12/22 04:15:56;;;;;;;12.28;8.85;;;;;;;7.07;78.52;100129.17;2811498;84;21208;-65
2020/12/22 04:20:01;;;;;;;10.80;7.35;;;;;;;7.10;78.54;100132.95;2811568;84;21148;-67
2020/12/22 04:24:06;;;;;;;11.33;7.90;;;;;;;7.12;78.36;100135.84;2814619;83;21156;-67
2020/12/22 04:28:09;;;;;;;19.15;9.08;;;;;;;7.14;78.12;100137.89;2812228;84;21748;-65
2020/12/22 04:32:13;;;;;;;12.05;7.47;;;;;;;7.18;77.94;100135.06;2811985;84;21167;-63
2020/12/22 04:36:20;;;;;;;13.88;9.03;;;;;;;7.18;78.52;100114.73;2813341;84;21204;-65
2020/12/22 04:40:23;;;;;;;10.03;8.15;;;;;;;7.15;79.39;100099.08;2815937;84;21642;-65
2020/12/22 04:44:27;;;;;;;12.78;7.95;;;;;;;7.03;80.30;100088.89;2813952;84;21144;-65
2020/12/22 04:48:37;;;;;;;11.70;7.90;;;;;;;6.98;80.54;100074.66;2808695;84;21609;-64
2020/12/22 04:52:41;;;;;;;12.95;7.47;;;;;;;6.98;80.40;100063.25;2801955;84;21188;-65
2020/12/22 04:56:49;;;;;;;12.68;8.83;;;;;;;7.03;80.37;100062.90;2814280;84;21176;-65
2020/12/22 05:00:53;;;;;;;8.75;5.80;;;;;;;7.08;79.96;100057.66;2812579;83;21132;-65
2020/12/22 05:04:57;;;;;;;9.40;7.05;;;;;;;7.13;79.57;100052.05;2787985;84;21188;-65
2020/12/22 05:09:00;;;;;;;9.75;6.08;;;;;;;7.16;79.28;100055.80;2812956;83;21156;-64
2020/12/22 05:13:04;;;;;;;10.90;7.95;;;;;;;7.17;79.34;100046.91;2815894;83;21155;-64
2020/12/22 05:17:14;;;;;;;8.98;6.60;;;;;;;7.23;79.11;100042.98;2817447;84;21167;-64
2020/12/22 05:21:19;;;;;;;10.28;6.45;;;;;;;7.25;78.76;100035.28;2819694;84;21147;-66
2020/12/22 05:25:23;;;;;;;11.38;5.75;;;;;;;7.32;78.71;100007.08;2785394;83;22234;-65
2020/12/22 05:29:28;;;;;;;12.07;8.40;;;;;;;7.30;78.13;100019.08;2814618;83;21180;-65
2020/12/22 05:33:32;;;;;;;12.90;6.67;;;;;;;7.41;78.21;100018.30;2806820;84;21202;-63
2020/12/22 05:37:40;;;;;;;10.35;6.25;;;;;;;7.45;78.06;100016.28;2804093;84;21614;-66
2020/12/22 05:41:44;;;;;;;17.70;7.83;;;;;;;7.49;77.81;100013.31;2770895;85;21162;-64
2020/12/22 05:45:50;;;;;;;7.87;6.05;;;;;;;7.54;77.61;100017.77;2822181;84;21132;-64
2020/12/22 05:49:58;;;;;;;10.78;7.15;;;;;;;7.56;77.54;100011.03;2822598;84;21128;-62
2020/12/22 05:54:08;;;;;;;9.95;6.80;;;;;;;7.54;77.72;99993.09;2822314;84;21204;-64
2020/12/22 05:58:15;;;;;;;9.83;6.67;;;;;;;7.56;78.29;99992.50;2810766;84;21192;-63
2020/12/22 06:02:40;;;;;;;9.03;6.05;;;;;;;7.50;78.59;99988.52;2830656;83;21175;-63
2020/12/22 06:06:43;;;;;;;9.00;7.05;;;;;;;7.51;78.80;99999.48;2832407;83;21205;-62
2020/12/22 06:10:46;;;;;;;8.73;6.70;;;;;;;7.53;78.73;99998.02;2819894;84;21176;-63
2020/12/22 06:14:53;;;;;;;10.93;7.60;;;;;;;7.52;78.81;99997.20;2820156;84;21175;-63
2020/12/22 06:18:56;;;;;;;;;;;;;;;7.54;78.80;99986.02;2823741;84;21204;-63
2020/12/22 06:23:08;;;;;;;7.62;5.70;;;;;;;7.53;78.72;99979.03;2821341;84;20185;-62
2020/12/22 06:27:13;;;;;;;7.90;6.97;;;;;;;7.54;78.82;99980.72;2821943;84;21716;-64
2020/12/22 06:31:27;;;;;;;11.15;6.35;;;;;;;7.54;78.81;99971.45;2820969;84;21638;-63
2020/12/22 06:35:33;;;;;;;10.65;6.03;;;;;;;7.56;79.06;99973.50;2821619;84;21189;-62
2020/12/22 06:39:42;;;;;;;11.88;6.37;;;;;;;7.58;79.38;99971.59;2821235;84;21193;-63
2020/12/22 06:43:46;;;;;;;8.40;6.12;;;;;;;7.57;79.84;99965.09;2821214;84;21176;-65
2020/12/22 06:47:50;;;;;;;6.97;5.65;;;;;;;7.51;80.33;99969.04;2821420;84;21157;-64
2020/12/22 06:51:54;;;;;;;6.80;4.83;;;;;;;7.46;80.65;99962.39;2823655;84;21133;-64
2020/12/22 06:56:19;;;;;;;8.30;4.90;;;;;;;7.41;80.99;99945.52;2811109;84;21172;-64
2020/12/22 07:00:30;;;;;;;7.58;4.30;;;;;;;7.38;81.36;99956.34;2833930;84;21143;-63
2020/12/22 07:04:41;;;;;;;7.83;3.12;;;;;;;7.35;81.39;99952.11;2881363;82;21658;-64
2020/12/22 07:08:47;;;;;;;5.35;2.87;;;;;;;7.33;81.53;99942.61;2871803;82;21155;-64
2020/12/22 07:12:56;;;;;;;5.70;3.08;;;;;;;7.34;81.44;99931.07;2883786;82;21449;-64
2020/12/22 07:17:02;;;;;;;3.42;2.70;;;;;;;7.34;81.38;99931.90;2883490;82;21151;-66
2020/12/22 07:21:08;;;;;;;7.03;4.33;;;;;;;7.36;81.48;99907.98;2883778;82;21115;-65
2020/12/22 07:25:14;;;;;;;5.80;4.20;;;;;;;7.35;81.74;99893.89;2883777;82;21636;-64
2020/12/22 07:29:18;;;;;;;4.33;3.50;;;;;;;7.37;81.72;99883.20;2849676;82;21140;-64
2020/12/22 07:33:21;;;;;;;2.83;2.33;;;;;;;7.36;81.83;99881.03;2881440;82;21149;-65
2020/12/22 07:37:25;;;;;;;5.50;2.95;;;;;;;7.41;81.91;99892.59;2881624;82;21124;-63
2020/12/22 07:41:29;;;;;;;5.50;4.20;;;;;;;7.41;81.91;99882.02;2881596;82;21176;-65
2020/12/22 07:45:32;;;;;;;4.85;3.60;;;;;;;7.46;81.90;99874.56;2883326;82;21160;-65
2020/12/22 07:49:37;;;;;;;4.75;4.12;;;;;;;7.48;81.83;99867.84;2882930;82;21209;-64
2020/12/22 07:53:42;;;;;;;6.40;2.87;;;;;;;7.50;81.83;99851.36;2880535;82;21148;-65
2020/12/22 07:57:46;;;;;;;3.62;2.20;;;;;;;7.52;81.43;99845.01;2873429;82;21579;-64
2020/12/22 08:01:52;;;;;;;3.65;2.00;;;;;;;7.54;81.07;99839.11;2859386;82;21180;-64
2020/12/22 08:06:04;;;;;;;3.55;1.98;;;;;;;7.60;81.05;99841.78;2861759;83;21124;-63
2020/12/22 08:10:17;;;;;;;1.77;0.98;;;;;;;7.62;80.89;99846.47;2861565;83;21129;-63
2020/12/22 08:14:23;;;;;;;3.87;2.02;;;;;;;7.70;80.60;99845.89;2861746;83;21167;-65
2020/12/22 08:18:32;;;;;;;1.10;1.00;;;;;;;7.72;80.23;99847.44;2861419;83;21168;-64
2020/12/22 08:22:36;;;;;;;1.62;1.52;;;;;;;7.74;80.50;99846.47;2860497;83;21148;-65
2020/12/22 08:26:46;;;;;;;3.45;1.85;;;;;;;7.76;80.84;99844.55;2860426;83;21164;-64
2020/12/22 08:30:54;;;;;;;2.98;1.42;;;;;;;7.78;80.98;99851.42;2859494;83;21201;-64
2020/12/22 08:34:59;;;;;;;2.83;1.02;;;;;;;7.80;81.01;99849.48;2861107;83;21903;-64
2020/12/22 08:39:22;;;;;;;2.35;2.10;;;;;;;7.86;80.95;99858.30;2860677;83;21168;-64
2020/12/22 08:43:27;;;;;;;1.07;0.88;;;;;;;7.92;80.77;99853.48;2861775;82;21132;-65
2020/12/22 08:47:31;;;;;;;2.83;1.15;;;;;;;7.97;80.45;99856.61;2808042;84;21170;-65
2020/12/22 08:51:35;;;;;;;1.35;1.22;;;;;;;8.03;80.33;99842.88;2787791;85;21161;-64
2020/12/22 08:55:39;;;;;;;1.55;1.17;;;;;;;8.09;79.98;99850.36;2786762;85;21647;-64
2020/12/22 08:59:43;;;;;;;1.70;0.57;;;;;;;8.14;79.62;99843.36;2840780;82;21217;-63
2020/12/22 09:03:56;;;;;;;1.62;0.85;;;;;;;8.19;79.67;99829.75;2856526;83;21661;-64
2020/12/22 09:08:05;;;;;;;1.25;0.60;;;;;;;8.15;80.31;99816.76;2854796;83;21182;-65
2020/12/22 09:12:11;;;;;;;0.37;0.37;;;;;;;8.22;80.58;99812.28;2854171;83;22167;-65
2020/12/22 09:16:15;;;;;;;1.55;0.40;;;;;;;8.25;80.39;99809.38;2855730;82;21162;-65
2020/12/22 09:20:22;;;;;;;2.27;0.60;;;;;;;8.32;80.47;99814.58;2858365;82;21142;-64
2020/12/22 09:24:26;;;;;;;1.05;0.68;;;;;;;8.37;79.71;99815.04;2854298;83;21136;-64
2020/12/22 09:28:32;;;;;;;0.93;0.67;;;;;;;8.41;79.32;99805.05;2854350;83;21199;-66
2020/12/22 09:32:36;;;;;;;0.35;0.28;;;;;;;8.43;79.62;99805.76;2854948;82;21165;-63
2020/12/22 09:36:45;;;;;;;0.50;0.50;;;;;;;8.49;79.60;99807.08;2856817;82;21166;-64
2020/12/22 09:40:50;;;;;;;0.50;0.47;;;;;;;8.53;79.42;99805.89;2855215;83;21122;-65
2020/12/22 09:44:54;;;;;;;1.25;0.80;;;;;;;8.55;79.54;99802.16;2856764;83;21627;-65
2020/12/22 09:48:59;;;;;;;1.75;0.80;;;;;;;8.59;79.95;99798.75;2855389;83;21158;-64
2020/12/22 09:53:05;;;;;;;2.58;0.88;;;;;;;8.60;80.42;99785.85;2854404;83;21158;-63
2020/12/22 09:57:08;;;;;;;0.50;0.50;;;;;;;8.55;81.01;99772.14;2856041;83;21170;-65
2020/12/22 10:01:14;;;;;;;1.45;1.15;;;;;;;8.52;80.99;99776.38;2854937;83;21130;-65
2020/12/22 10:05:17;;;;;;;1.02;0.70;;;;;;;8.54;81.00;99769.95;2855992;83;21505;-63
2020/12/22 10:09:22;;;;;;;0.93;0.45;;;;;;;8.55;81.05;99756.23;2854884;83;21107;-64
2020/12/22 10:13:26;;;;;;;0.95;0.80;;;;;;;8.54;81.10;99755.88;2855039;83;22210;-64
2020/12/22 10:17:31;;;;;;;0.55;0.42;;;;;;;8.60;81.21;99758.52;2854572;83;21138;-63
2020/12/22 10:21:34;;;;;;;1.35;0.95;;;;;;;8.65;81.11;99750.55;2854919;83;21517;-65
2020/12/22 10:25:38;;;;;;;2.52;1.15;;;;;;;8.70;81.11;99752.80;2856771;83;21178;-63
2020/12/22 10:29:42;;;;;;;1.25;0.80;;;;;;;8.76;81.25;99756.75;2855061;83;21158;-65
2020/12/22 10:33:47;;;;;;;1.77;1.45;;;;;;;8.85;81.52;99757.34;2856526;82;21130;-65
2020/12/22 10:37:50;;;;;;;2.27;1.20;;;;;;;8.96;81.44;99740.02;2856780;83;21130;-63
2020/12/22 10:41:54;;;;;;;1.72;1.22;;;;;;;9.11;81.50;99745.02;2854622;83;21609;-65
2020/12/22 10:45:59;;;;;;;1.40;1.25;;;;;;;9.32;81.22;99747.64;2853243;83;21217;-64
2020/12/22 10:50:04;;;;;;;1.98;1.50;;;;;;;9.43;80.47;99740.94;2769698;84;21165;-64
2020/12/22 10:54:08;;;;;;;1.60;1.47;;;;;;;9.57;80.16;99735.75;2820337;84;21579;-64
2020/12/22 10:58:11;;;;;;;2.85;1.90;;;;;;;9.67;79.75;99733.64;2822205;84;21171;-64
2020/12/22 11:02:15;;;;;;;5.42;1.77;;;;;;;9.76;79.69;99732.83;2830381;84;21172;-64
2020/12/22 11:06:29;;;;;;;1.87;1.25;;;;;;;9.88;79.67;99724.27;2852201;83;21158;-63
2020/12/22 11:10:28;;;;;;;1.65;1.40;;;;;;;10.06;79.16;99719.16;2829789;84;21176;-63
2020/12/22 11:14:35;;;;;;;3.90;1.82;;;;;;;10.17;78.98;99715.54;2851583;83;21198;-63
2020/12/22 11:18:40;;;;;;;3.13;2.00;;;;;;;10.36;78.82;99729.33;2831383;82;21618;-64
2020/12/22 11:22:47;;;;;;;2.52;1.70;;;;;;;10.59;78.77;99722.45;2838566;82;21191;-65
2020/12/22 11:26:52;;;;;;;2.02;1.92;;;;;;;10.79;78.19;99713.98;2830961;82;21156;-63
2020/12/22 11:30:56;;;;;;;1.40;1.07;;;;;;;10.92;77.50;99713.69;2834626;82;21140;-65
2020/12/22 11:35:00;;;;;;;4.60;2.02;;;;;;;11.09;77.54;99717.42;2783606;83;21180;-65
2020/12/22 11:39:03;;;;;;;2.85;2.17;;;;;;;11.26;77.46;99711.87;2852380;82;21144;-64
2020/12/22 11:43:07;;;;;;;6.75;3.77;;;;;;;11.38;77.03;99714.34;2851382;83;21170;-64
2020/12/22 11:47:12;;;;;;;4.92;2.95;;;;;;;11.43;76.63;99718.26;2848871;83;21178;-65
2020/12/22 11:51:15;;;;;;;4.87;2.60;;;;;;;11.48;76.99;99704.52;2850273;83;21161;-67
2020/12/22 11:55:21;;;;;;;2.58;2.20;;;;;;;11.54;77.48;99709.24;2842681;82;21178;-67
2020/12/22 11:59:24;;;;;;;4.55;2.27;;;;;;;11.67;78.10;99703.58;2849819;82;21619;-67
2020/12/22 12:03:28;;;;;;;1.85;1.12;;;;;;;11.81;78.92;99710.27;2867682;82;21157;-65
2020/12/22 12:07:32;;;;;;;2.77;1.72;;;;;;;11.93;78.48;99715.38;2849718;82;21181;-66
2020/12/22 12:11:36;;;;;;;2.83;1.67;;;;;;;11.98;78.04;99712.62;2867434;82;21173;-66
2020/12/22 12:15:40;;;;;;;3.05;1.40;;;;;;;12.00;77.89;99704.48;2862991;82;21209;-68
2020/12/22 12:19:44;;;;;;;2.25;1.25;;;;;;;12.02;77.91;99706.54;2826741;83;21196;-66
2020/12/22 12:23:48;;;;;;;2.45;1.12;;;;;;;12.06;77.96;99701.25;2852122;82;21161;-67
2020/12/22 12:27:53;;;;;;;1.40;1.05;;;;;;;12.07;77.66;99698.92;2833506;83;21168;-64
2020/12/22 12:31:57;;;;;;;;;;;;;;;12.09;77.71;99695.61;2873010;82;21140;-65
2020/12/22 12:36:02;;;;;;;3.27;1.42;;;;;;;12.17;78.44;99692.20;2882161;82;20159;-66
2020/12/22 12:40:07;;;;;;;1.90;1.10;;;;;;;12.29;78.57;99696.80;2881003;81;21163;-64
2020/12/22 12:44:11;;;;;;;1.70;0.90;;;;;;;12.39;78.71;99697.59;2877538;81;21144;-65
2020/12/22 12:48:14;;;;;;;2.60;1.40;;;;;;;12.49;78.56;99703.33;2875341;82;21601;-66
2020/12/22 12:52:20;;;;;;;2.47;1.80;;;;;;;12.59;78.53;99694.77;2878396;82;21140;-66
2020/12/22 12:56:26;;;;;;;3.65;2.15;;;;;;;12.60;78.09;99706.26;2878498;82;21146;-65
2020/12/22 13:00:31;;;;;;;2.35;1.27;;;;;;;12.63;78.07;99707.28;2868564;82;21158;-64
2020/12/22 13:04:35;;;;;;;4.80;3.40;;;;;;;12.64;77.72;99708.95;2863730;82;21142;-61
2020/12/22 13:08:43;;;;;;;6.28;4.30;;;;;;;12.59;77.55;99708.10;2842156;82;21216;-64
2020/12/22 13:12:48;;;;;;;6.95;3.70;;;;;;;12.56;77.43;99711.91;2825776;83;21148;-65
2020/12/22 13:16:52;;;;;;;5.47;3.33;;;;;;;12.46;78.03;99710.31;2829421;83;21096;-63
2020/12/22 13:20:55;;;;;;;3.85;2.95;;;;;;;12.41;78.01;99714.27;2832940;83;21144;-65
2020/12/22 13:24:59;;;;;;;6.60;3.80;;;;;;;12.41;78.03;99716.95;2836406;83;21156;-64
2020/12/22 13:29:03;;;;;;;3.75;3.30;;;;;;;12.39;78.44;99718.08;2835207;83;21153;-65
2020/12/22 13:33:09;;;;;;;6.22;3.45;;;;;;;12.39;78.49;99718.92;2836719;83;21196;-64
2020/12/22 13:37:13;;;;;;;8.58;4.47;;;;;;;12.41;78.65;99724.94;2782017;84;21172;-64
2020/12/22 13:41:18;;;;;;;7.60;4.60;;;;;;;12.45;79.05;99716.63;2806320;84;21164;-66
2020/12/22 13:45:23;;;;;;;3.25;2.62;;;;;;;12.52;79.10;99722.55;2802787;84;21167;-64
2020/12/22 13:49:27;;;;;;;4.78;3.12;;;;;;;12.54;78.98;99733.05;2779032;83;21147;-64
2020/12/22 13:53:31;;;;;;;7.95;2.87;;;;;;;12.57;78.86;99742.07;2776072;83;21641;-65
2020/12/22 13:57:34;;;;;;;6.65;2.58;;;;;;;12.60;78.90;99741.80;2758569;83;21536;-65
2020/12/22 14:01:37;;;;;;;3.92;3.00;;;;;;;12.62;78.63;99755.82;2824048;84;21195;-63
2020/12/22 14:05:40;;;;;;;10.18;2.98;;;;;;;12.62;78.42;99752.30;2859981;83;21138;-63
2020/12/22 14:09:45;;;;;;;3.60;2.52;;;;;;;12.58;78.58;99758.45;2835188;84;21204;-63
2020/12/22 14:13:51;;;;;;;3.40;2.98;;;;;;;12.57;78.68;99755.41;2837513;83;21188;-63
2020/12/22 14:17:54;;;;;;;2.60;1.72;;;;;;;12.57;78.45;99756.75;2837802;83;21177;-63
2020/12/22 14:21:58;;;;;;;5.40;3.35;;;;;;;12.53;78.48;99760.72;2829533;81;21146;-66
2020/12/22 14:26:05;;;;;;;6.12;2.30;;;;;;;12.51;78.60;99758.70;2862961;83;21178;-67
2020/12/22 14:30:09;;;;;;;3.67;2.65;;;;;;;12.50;78.72;99755.69;2821823;83;21171;-65
2020/12/22 14:34:13;;;;;;;3.75;2.85;;;;;;;12.51;78.73;99753.36;2802648;83;21177;-65
2020/12/22 14:38:17;;;;;;;4.90;2.87;;;;;;;12.49;78.92;99762.87;2833478;82;21517;-64
2020/12/22 14:42:25;;;;;;;4.50;2.90;;;;;;;12.49;79.09;99766.88;2808283;83;21163;-65
2020/12/22 14:46:29;;;;;;;4.62;3.95;;;;;;;12.49;79.39;99771.34;2790733;85;21191;-66
2020/12/22 14:50:35;;;;;;;5.25;2.95;;;;;;;12.49;79.56;99778.02;2840612;83;21156;-66
2020/12/22 14:54:43;;;;;;;3.80;3.17;;;;;;;12.48;79.60;99777.67;2823722;83;21154;-66
2020/12/22 14:58:47;;;;;;;6.12;4.80;;;;;;;12.50;79.62;99782.36;2835941;83;21152;-66
2020/12/22 15:02:51;;;;;;;6.72;4.42;;;;;;;12.53;79.84;99784.73;2828829;83;21176;-65
2020/12/22 15:07:00;;;;;;;6.45;3.80;;;;;;;12.55;80.31;99790.75;2828122;84;21155;-65
2020/12/22 15:11:03;;;;;;;7.05;4.85;;;;;;;12.52;80.72;99797.23;2828455;84;21203;-66
2020/12/22 15:15:08;;;;;;;5.47;3.22;;;;;;;12.53;80.97;99793.58;2829258;84;21144;-66
2020/12/22 15:19:12;;;;;;;5.10;2.50;;;;;;;12.53;81.22;99794.06;2828713;84;21144;-66
2020/12/22 15:23:16;;;;;;;4.08;2.00;;;;;;;12.55;81.70;99798.75;2829791;84;21164;-66
2020/12/22 15:27:21;;;;;;;18.10;7.78;;;;;;;12.63;81.87;99802.00;2828263;84;21204;-66
2020/12/22 15:31:25;;;;;;;18.20;9.80;;;;;;;12.66;81.41;99801.21;2827969;84;21195;-66
2020/12/22 15:35:28;;;;;;;5.15;3.75;;;;;;;12.63;80.37;99810.86;2828376;84;21121;-66
2020/12/22 15:39:35;;;;;;;4.95;2.83;;;;;;;12.54;79.67;99805.93;2827848;84;21164;-66
2020/12/22 15:43:37;;;;;;;4.47;3.05;;;;;;;12.42;79.80;99804.45;2828070;84;21626;-66
2020/12/22 15:47:40;;;;;;;3.65;2.85;;;;;;;12.35;80.09;99794.87;2828013;84;21577;-66
2020/12/22 15:51:45;;;;;;;12.78;3.55;;;;;;;12.32;80.52;99800.50;2827994;84;21160;-66
2020/12/22 15:55:49;;;;;;;3.80;2.58;;;;;;;12.33;80.78;99806.19;2804080;84;21140;-66
2020/12/22 15:59:53;;;;;;;3.65;3.10;;;;;;;12.35;80.57;99816.72;2829200;84;21228;-66
2020/12/22 16:03:57;;;;;;;2.70;2.08;;;;;;;12.34;80.62;99810.53;2831451;84;21164;-66
2020/12/22 16:08:01;;;;;;;5.78;2.67;;;;;;;12.31;80.78;99814.83;2830614;84;21176;-66
2020/12/22 16:12:06;;;;;;;4.60;2.40;;;;;;;12.32;80.74;99824.51;2830420;84;21180;-66
2020/12/22 16:16:10;;;;;;;4.62;2.90;;;;;;;12.30;80.85;99818.48;2830183;84;21169;-67
2020/12/22 16:20:14;;;;;;;3.62;2.37;;;;;;;12.35;82.05;99815.38;2802481;84;21197;-67
2020/12/22 16:24:18;;;;;;;3.05;1.95;;;;;;;12.58;83.36;99821.16;2830480;84;21201;-67
2020/12/22 16:28:22;;;;;;;3.85;2.35;;;;;;;12.84;82.76;99823.07;2830892;84;21188;-66
2020/12/22 16:32:27;;;;;;;2.70;2.08;;;;;;;13.04;82.14;99817.58;2830297;84;21164;-66
2020/12/22 16:36:32;;;;;;;3.33;2.25;;;;;;;13.19;81.54;99808.52;2830660;84;21200;-66
2020/12/22 16:40:36;;;;;;;4.55;2.77;;;;;;;13.31;81.42;99805.09;2832826;84;21171;-66
2020/12/22 16:44:40;;;;;;;5.05;2.75;;;;;;;13.45;80.91;99795.22;2833394;84;21199;-66
2020/12/22 16:48:44;;;;;;;3.75;2.55;;;;;;;13.54;80.44;99802.28;2833601;84;21175;-66
2020/12/22 16:52:49;;;;;;;5.55;3.30;;;;;;;13.66;80.12;99807.38;2832791;84;21148;-66
2020/12/22 16:56:53;;;;;;;3.47;2.33;;;;;;;13.73;79.55;99816.43;2831984;84;21164;-66
2020/12/22 17:00:59;;;;;;;3.12;2.22;;;;;;;13.77;79.06;99817.81;2832092;84;21180;-66
2020/12/22 17:05:03;;;;;;;2.02;1.30;;;;;;;13.69;78.47;99818.59;2854945;83;21130;-66
2020/12/22 17:09:14;;;;;;;3.50;3.05;;;;;;;13.65;78.37;99821.73;2832811;84;21136;-66
2020/12/22 17:13:17;;;;;;;4.37;3.37;;;;;;;13.55;77.86;99825.84;2832707;84;21140;-66
2020/12/22 17:17:20;;;;;;;3.90;2.52;;;;;;;13.38;77.76;99828.88;2832589;84;22241;-67
2020/12/22 17:21:24;;;;;;;5.83;3.92;;;;;;;13.30;78.23;99836.33;2832522;84;21159;-65
2020/12/22 17:25:28;;;;;;;4.28;2.02;;;;;;;13.27;79.23;99830.78;2832261;84;21172;-66
2020/12/22 17:29:32;;;;;;;5.60;3.58;;;;;;;13.40;80.03;99828.22;2832336;84;21168;-67
2020/12/22 17:33:36;;;;;;;3.50;2.42;;;;;;;13.62;80.15;99835.42;2832508;84;21148;-67
2020/12/22 17:37:39;;;;;;;5.00;2.55;;;;;;;13.75;79.87;99842.50;2832409;84;21163;-66
2020/12/22 17:41:44;;;;;;;3.35;1.72;;;;;;;13.87;79.74;99848.93;2833122;82;21196;-64
2020/12/22 17:45:48;;;;;;;3.98;1.52;;;;;;;13.88;79.74;99844.77;2832846;84;21613;-68
2020/12/22 17:49:53;;;;;;;2.23;1.73;;;;;;;13.94;79.65;99845.95;2833054;84;21163;-67
2020/12/22 17:54:01;;;;;;;1.98;1.60;;;;;;;14.03;79.72;99854.86;2854279;83;21613;-68
2020/12/22 17:58:04;;;;;;;2.45;2.22;;;;;;;14.10;79.91;99850.57;2832245;84;21192;-68
2020/12/22 18:02:08;;;;;;;4.08;2.40;;;;;;;14.21;79.77;99862.82;2827174;84;21168;-68
2020/12/22 18:06:12;;;;;;;4.35;2.08;;;;;;;14.26;79.89;99856.48;2822033;84;21133;-68
2020/12/22 18:10:16;;;;;;;3.67;2.90;;;;;;;14.32;79.98;99865.71;2822203;84;21164;-66
2020/12/22 18:14:20;;;;;;;2.33;2.12;;;;;;;14.37;79.84;99873.60;2823309;84;21598;-67
2020/12/22 18:18:25;;;;;;;7.97;2.90;;;;;;;14.41;79.83;99877.63;2828266;83;21187;-67
2020/12/22 18:22:29;;;;;;;5.97;2.50;;;;;;;14.42;80.13;99880.64;2823386;83;21189;-67
2020/12/22 18:26:32;;;;;;;4.08;2.45;;;;;;;14.42;80.17;99874.44;2823736;83;21137;-67
2020/12/22 18:30:36;;;;;;;4.25;2.95;;;;;;;14.40;80.24;99883.98;2823604;83;21164;-67
2020/12/22 18:34:44;;;;;;;4.08;2.65;;;;;;;14.38;80.22;99888.66;2821953;83;21157;-67
2020/12/22 18:38:49;;;;;;;3.85;2.25;;;;;;;14.34;80.38;99892.63;2824081;83;39336;-67
2020/12/22 18:42:54;;;;;;;4.17;3.17;;;;;;;14.31;80.99;99884.10;2823074;84;21179;-67
2020/12/22 18:46:58;;;;;;;5.28;2.33;;;;;;;14.34;81.03;99895.30;2821758;83;21400;-67
2020/12/22 18:51:05;;;;;;;2.22;1.80;;;;;;;14.33;80.92;99906.18;2824081;83;21128;-67
2020/12/22 18:55:10;;;;;;;3.15;2.67;;;;;;;14.27;81.02;99900.96;2822999;84;21191;-67
2020/12/22 18:59:14;;;;;;;2.83;2.50;;;;;;;14.31;81.00;99910.85;2824371;84;21140;-67
2020/12/22 19:03:20;;;;;;;4.50;3.30;;;;;;;14.33;80.98;99911.02;2857730;82;21170;-67
2020/12/22 19:07:24;;;;;;;4.07;3.13;;;;;;;14.38;81.07;99923.92;2806981;83;21119;-66
2020/12/22 19:11:29;;;;;;;6.75;3.92;;;;;;;14.37;81.09;99934.28;2807029;84;21206;-66